aviador You're here:

PHHI Decoded Metar

WHEELER AFB. in HI, USA OAHU ISL.
Report Time2017-08-16 18:58:00
UTC Time2017-08-16 19:28:11
Flight Rules vfr VFR
Wind090° at 03 kt
W.Decomp.*RWY 06: 2.8 kt HW 1.0 kt RCW
W.Rank090° ranks 4
Current wind is below 090° avg. (8.3)
Visibility9999 m
Phenomena:N/A
Clouds:Few 011 Hf
Broken 033 Hf
Overcast 047 Hf
Expected CloudBase > 1,200 ft AGL from Temp-Dew spread
Ceiling3,300 ft
Temp24°C (ISA +11)
Dew Point21°C (83% RH)
QNH1017 hPa
Density Alt2,270 ft
Elevation837 ft
Report Wrong Elevation
Raw Report
PHHI 161858Z AUTO 09003KT 10SM FEW011 BKN033 OVC047 24/21 A3002
RMK AO2 DZB25E28RAB28E37DZB37E42 SLP156 P0000 T02350207 $=

Extra information for PHHI:More info

Metar Taf Metar & Taf Last 4 Metars F.Rules Stats Wind Profile Meteogram Temp Stats Airport Information Weather charts Add Link Nearby VenuesMetar ALERT Operation Metar Decoded Social comments